Time;durP1;ratioP1;P1;durP2;ratioP2;P2;SDS_P1;SDS_P2;PMS_P1;PMS_P2;Temp;Humidity;BMP_temperature;BMP_pressure;BME280_temperature;BME280_humidity;BME280_pressure;Samples;Min_cycle;Max_cycle;Signal;HPM_P1;HPM_P2
2022/07/21 00:01:48;;;;;;;;;;;;;;;11.98;88.90;99422.43;1701521;84;20158;-70
2022/07/21 00:04:16;;;;;;;;;;;;;;;11.96;89.07;99422.76;1701506;84;20154;-70
2022/07/21 00:06:45;;;;;;;;;;;;;;;11.94;89.19;99417.34;1701499;84;20126;-70
2022/07/21 00:09:14;;;;;;;;;;;;;;;11.87;89.12;99414.52;1701529;84;20114;-70
2022/07/21 00:11:40;;;;;;;;;;;;;;;11.79;89.51;99420.84;1676809;84;20172;-70
2022/07/21 00:14:08;;;;;;;;;;;;;;;11.74;89.69;99418.23;1674817;84;20143;-70
2022/07/21 00:16:36;;;;;;;;;;;;;;;11.66;89.72;99421.81;1674675;85;20124;-70
2022/07/21 00:19:04;;;;;;;;;;;;;;;11.54;90.30;99421.13;1674734;85;20136;-70
2022/07/21 00:21:31;;;;;;;;;;;;;;;11.50;90.88;99422.91;1674820;84;21822;-70
2022/07/21 00:23:58;;;;;;;;;;;;;;;11.49;91.10;99423.23;1674680;84;20124;-70
2022/07/21 00:26:26;;;;;;;;;;;;;;;11.44;91.31;99423.39;1674797;85;20100;-70
2022/07/21 00:28:53;;;;;;;;;;;;;;;11.42;91.95;99422.91;1674825;84;20167;-70
2022/07/21 00:31:21;;;;;;;;;;;;;;;11.44;92.39;99426.14;1674814;85;20120;-70
2022/07/21 00:33:50;;;;;;;;;;;;;;;11.45;92.59;99423.07;1674819;85;21302;-70
2022/07/21 00:36:18;;;;;;;;;;;;;;;11.50;92.69;99424.28;1674791;85;20088;-70
2022/07/21 00:38:44;;;;;;;;;;;;;;;11.54;92.92;99423.88;1674757;85;20088;-70
2022/07/21 00:41:11;;;;;;;;;;;;;;;11.57;92.93;99420.44;1675016;84;20439;-70
2022/07/21 00:43:38;;;;;;;;;;;;;;;11.65;92.95;99420.19;1674994;84;20089;-70
2022/07/21 00:46:06;;;;;;;;;;;;;;;11.69;92.75;99419.78;1674913;85;21058;-70
2022/07/21 00:48:33;;;;;;;;;;;;;;;11.70;92.64;99417.27;1674885;85;20125;-70
2022/07/21 00:51:00;;;;;;;;;;;;;;;11.72;92.57;99414.20;1674944;84;20116;-70
2022/07/21 00:53:27;;;;;;;;;;;;;;;11.73;92.33;99418.00;1674807;85;20113;-70
2022/07/21 00:55:55;;;;;;;;;;;;;;;11.70;92.41;99415.90;1674922;84;20125;-70
2022/07/21 00:58:23;;;;;;;;;;;;;;;11.68;92.46;99418.17;1674953;84;20104;-70
2022/07/21 01:00:51;;;;;;;;;;;;;;;11.63;92.70;99414.21;1674882;85;20116;-70
2022/07/21 01:03:18;;;;;;;;;;;;;;;11.62;92.75;99413.97;1674915;85;20148;-70
2022/07/21 01:05:45;;;;;;;;;;;;;;;11.58;92.90;99411.06;1675132;84;20451;-70
2022/07/21 01:08:12;;;;;;;;;;;;;;;11.57;92.85;99412.77;1674826;84;20120;-70
2022/07/21 01:10:39;;;;;;;;;;;;;;;11.52;92.75;99415.14;1684322;83;21134;-70
2022/07/21 01:13:06;;;;;;;;;;;;;;;11.48;92.82;99416.12;1646254;84;20094;-68
2022/07/21 01:15:33;;;;;;;;;;;;;;;11.42;93.01;99416.84;1701634;84;20122;-70
2022/07/21 01:18:00;;;;;;;;;;;;;;;11.37;93.32;99418.95;1701625;84;20429;-70
2022/07/21 01:20:27;;;;;;;;;;;;;;;11.34;93.53;99412.73;1701582;83;20098;-70
2022/07/21 01:22:55;;;;;;;;;;;;;;;11.30;93.76;99415.31;1701635;84;21261;-70
2022/07/21 01:25:22;;;;;;;;;;;;;;;11.25;94.06;99410.78;1701909;84;20086;-70
2022/07/21 01:27:49;;;;;;;;;;;;;;;11.25;94.48;99409.98;1701594;84;20086;-69
2022/07/21 01:30:16;;;;;;;;;;;;;;;11.26;94.73;99406.09;1701728;83;20434;-70
2022/07/21 01:32:44;;;;;;;;;;;;;;;11.25;94.63;99408.03;1688507;84;20074;-70
2022/07/21 01:35:13;;;;;;;;;;;;;;;11.22;94.99;99410.62;1701808;84;39035;-70
2022/07/21 01:37:42;;;;;;;;;;;;;;;11.16;95.21;99407.22;1701561;84;20414;-69
2022/07/21 01:42:55;;;;;;;;;;;;;;;11.11;95.54;99403.27;1701672;83;20110;-70
2022/07/21 01:45:23;;;;;;;;;;;;;;;11.06;95.38;99402.05;1700046;84;20469;-70
2022/07/21 01:47:51;;;;;;;;;;;;;;;11.00;95.32;99404.70;1701540;83;21167;-70
2022/07/21 01:50:22;;;;;;;;;;;;;;;10.93;95.51;99394.80;1698016;83;20109;-71
2022/07/21 01:52:48;;;;;;;;;;;;;;;10.87;95.78;99398.82;1673437;86;20124;-71
2022/07/21 01:55:15;;;;;;;;;;;;;;;10.80;95.75;99395.17;1673245;85;20370;-71
2022/07/21 01:57:42;;;;;;;;;;;;;;;10.74;96.05;99395.08;1673466;85;20104;-71
2022/07/21 02:00:10;;;;;;;;;;;;;;;10.67;96.37;99394.75;1673406;86;21251;-71
2022/07/21 02:02:37;;;;;;;;;;;;;;;10.63;96.54;99394.33;1683740;84;20098;-71
2022/07/21 02:05:06;;;;;;;;;;;;;;;10.59;96.97;99390.85;1701610;84;20122;-70
2022/07/21 02:07:34;;;;;;;;;;;;;;;10.57;97.34;99393.67;1673834;84;20088;-70
2022/07/21 02:10:01;;;;;;;;;;;;;;;10.57;98.21;99390.92;1688211;84;20162;-70
2022/07/21 02:12:28;;;;;;;;;;;;;;;10.62;98.50;99388.59;1701562;84;21254;-70
2022/07/21 02:14:55;;;;;;;;;;;;;;;10.67;99.14;99391.19;1701513;84;20421;-70
2022/07/21 02:17:22;;;;;;;;;;;;;;;10.75;99.30;99395.33;1701618;84;20126;-70
2022/07/21 02:19:50;;;;;;;;;;;;;;;10.81;99.35;99401.48;1701608;83;20138;-69
2022/07/21 02:22:17;;;;;;;;;;;;;;;10.87;99.72;99401.00;1701632;83;20086;-70
2022/07/21 02:24:44;;;;;;;;;;;;;;;10.99;100.00;99400.34;1701622;84;21251;-70
2022/07/21 02:27:12;;;;;;;;;;;;;;;11.09;99.38;99395.91;1701872;84;20103;-70
2022/07/21 02:29:40;;;;;;;;;;;;;;;11.13;98.72;99394.13;1696409;84;20195;-70
2022/07/21 02:32:07;;;;;;;;;;;;;;;11.16;98.70;99388.55;1673514;85;20124;-70
2022/07/21 02:34:34;;;;;;;;;;;;;;;11.20;99.04;99391.70;1673457;86;20104;-70
2022/07/21 02:37:00;;;;;;;;;;;;;;;11.32;99.45;99391.63;1673392;85;21157;-71
2022/07/21 02:39:27;;;;;;;;;;;;;;;11.43;98.86;99385.48;1673364;86;20105;-72
2022/07/21 02:41:53;;;;;;;;;;;;;;;11.51;98.45;99385.23;1673378;85;20088;-71
2022/07/21 02:44:20;;;;;;;;;;;;;;;11.55;97.59;99383.45;1673388;86;20088;-71
2022/07/21 02:46:47;;;;;;;;;;;;;;;11.64;97.77;99387.52;1673534;86;20423;-71
2022/07/21 02:49:13;;;;;;;;;;;;;;;11.67;96.88;99390.42;1673408;86;21145;-72
2022/07/21 02:51:39;;;;;;;;;;;;;;;11.73;96.71;99391.06;1673334;86;20167;-70
2022/07/21 02:54:07;;;;;;;;;;;;;;;11.75;96.43;99388.80;1673400;85;20443;-70
2022/07/21 02:56:34;;;;;;;;;;;;;;;11.75;95.97;99392.92;1673288;86;20506;-73
2022/07/21 02:59:01;;;;;;;;;;;;;;;11.78;95.93;99389.55;1673427;85;20155;-71
2022/07/21 03:01:29;;;;;;;;;;;;;;;11.78;95.97;99390.36;1673365;85;20457;-72
2022/07/21 03:03:56;;;;;;;;;;;;;;;11.78;95.72;99387.61;1673332;86;20212;-72
2022/07/21 03:06:22;;;;;;;;;;;;;;;11.81;95.72;99388.89;1673410;85;20096;-72
2022/07/21 03:08:50;;;;;;;;;;;;;;;11.83;95.53;99392.94;1673273;85;20176;-71
2022/07/21 03:11:18;;;;;;;;;;;;;;;11.84;95.69;99390.42;1673272;85;20160;-71
2022/07/21 03:13:46;;;;;;;;;;;;;;;11.88;96.23;99395.52;1673391;85;20112;-73
2022/07/21 03:16:12;;;;;;;;;;;;;;;11.89;96.35;99394.38;1673313;86;20100;-74
2022/07/21 03:18:41;;;;;;;;;;;;;;;11.93;95.90;99390.97;1673598;86;20427;-72
2022/07/21 03:21:08;;;;;;;;;;;;;;;12.00;95.55;99380.27;1673475;86;20104;-72
2022/07/21 03:23:35;;;;;;;;;;;;;;;12.04;95.45;99382.03;1673363;85;20088;-71
2022/07/21 03:26:01;;;;;;;;;;;;;;;12.12;95.12;99385.32;1673363;86;21804;-73
2022/07/21 03:28:28;;;;;;;;;;;;;;;12.18;94.57;99382.59;1685523;83;20095;-74
2022/07/21 03:30:56;;;;;;;;;;;;;;;12.27;93.88;99379.00;1709367;83;20074;-78
2022/07/21 03:33:22;;;;;;;;;;;;;;;12.31;93.98;99382.14;1692555;84;20138;-73
2022/07/21 03:35:48;;;;;;;;;;;;;;;12.41;94.24;99380.39;1694006;84;20123;-72
2022/07/21 03:38:15;;;;;;;;;;;;;;;12.48;93.69;99376.55;1687011;85;21717;-72
2022/07/21 03:40:41;;;;;;;;;;;;;;;12.53;92.87;99377.73;1686773;85;20151;-73
2022/07/21 03:43:08;;;;;;;;;;;;;;;12.59;92.49;99367.91;1687079;85;20107;-73
2022/07/21 03:45:35;;;;;;;;;;;;;;;12.64;92.59;99373.22;1686921;85;20131;-70
2022/07/21 03:48:04;;;;;;;;;;;;;;;12.69;91.89;99370.28;1686761;85;20477;-72
2022/07/21 03:50:30;;;;;;;;;;;;;;;12.74;92.12;99365.92;1687029;85;21786;-69
2022/07/21 03:52:57;;;;;;;;;;;;;;;12.83;92.10;99368.05;1686730;85;20130;-72
2022/07/21 03:55:24;;;;;;;;;;;;;;;12.92;90.93;99371.55;1686743;85;20143;-71
2022/07/21 03:57:55;;;;;;;;;;;;;;;12.98;90.73;99372.96;1686980;85;20502;-71
2022/07/21 04:00:36;;;;;;;;;;;;;;;13.03;90.70;99364.50;1686780;85;20481;-70
2022/07/21 04:03:04;;;;;;;;;;;;;;;13.08;90.26;99362.92;1701730;83;21832;-71
2022/07/21 04:05:31;;;;;;;;;;;;;;;13.17;90.03;99369.20;1706171;83;20102;-71
2022/07/21 04:07:58;;;;;;;;;;;;;;;13.27;89.57;99368.55;1701447;84;20118;-70
2022/07/21 04:10:26;;;;;;;;;;;;;;;13.34;88.57;99366.03;1701507;84;20118;-71
2022/07/21 04:12:54;;;;;;;;;;;;;;;13.41;88.88;99364.34;1701167;84;20437;-72
2022/07/21 04:15:21;;;;;;;;;;;;;;;13.48;88.50;99368.73;1701688;84;21141;-71
2022/07/21 04:17:48;;;;;;;;;;;;;;;13.57;88.15;99362.33;1694591;84;20078;-71
2022/07/21 04:20:15;;;;;;;;;;;;;;;13.63;87.49;99367.29;1689341;83;20104;-72
2022/07/21 04:22:43;;;;;;;;;;;;;;;13.70;87.77;99362.60;1672653;86;20710;-72
2022/07/21 04:25:11;;;;;;;;;;;;;;;13.78;87.62;99356.98;1672708;85;20137;-78
2022/07/21 04:27:37;;;;;;;;;;;;;;;13.91;87.88;99374.92;1673496;86;21195;-72
2022/07/21 04:30:05;;;;;;;;;;;;;;;14.03;87.06;99373.56;1673279;85;20129;-72
2022/07/21 04:32:37;;;;;;;;;;;;;;;14.10;85.67;99373.81;1673319;86;20424;-71
2022/07/21 04:35:06;;;;;;;;;;;;;;;14.18;85.66;99366.00;1673513;85;20176;-71
2022/07/21 04:37:33;;;;;;;;;;;;;;;14.28;85.23;99377.17;1671369;86;20167;-72
2022/07/21 04:40:01;;;;;;;;;;;;;;;14.35;84.82;99372.69;1674334;84;21097;-71
2022/07/21 04:42:28;;;;;;;;;;;;;;;14.44;84.90;99370.62;1704019;82;20409;-77
2022/07/21 04:44:55;;;;;;;;;;;;;;;14.54;84.36;99382.59;1704631;82;20111;-75
2022/07/21 04:47:34;;;;;;;;;;;;;;;14.63;83.74;99376.94;1701458;84;20078;-75
2022/07/21 04:50:02;;;;;;;;;;;;;;;14.71;82.89;99377.40;1680873;84;20074;-75
2022/07/21 04:52:29;;;;;;;;;;;;;;;14.80;82.88;99384.18;1701699;84;21151;-74
2022/07/21 04:55:00;;;;;;;;;;;;;;;14.88;82.90;99372.19;1701646;84;20074;-74
2022/07/21 04:57:27;;;;;;;;;;;;;;;15.01;82.04;99373.78;1701427;83;20209;-74
2022/07/21 04:59:58;;;;;;;;;;;;;;;15.11;81.30;99377.98;1701920;84;20131;-73
2022/07/21 05:02:28;;;;;;;;;;;;;;;15.20;81.03;99384.98;1701180;84;20086;-75
2022/07/21 05:04:58;;;;;;;;;;;;;;;15.30;80.91;99386.46;1700673;84;21168;-73
2022/07/21 05:07:28;;;;;;;;;;;;;;;15.40;79.51;99376.86;1700368;83;20098;-75
2022/07/21 05:09:58;;;;;;;;;;;;;;;15.49;79.86;99378.91;1700565;84;20178;-76
2022/07/21 05:12:26;;;;;;;;;;;;;;;15.58;79.29;99382.93;1701366;82;20524;-75
2022/07/21 05:14:53;;;;;;;;;;;;;;;15.65;79.03;99383.91;1708221;83;20126;-75
2022/07/21 05:17:27;;;;;;;;;;;;;;;15.76;78.76;99383.62;1697216;83;20119;-81
2022/07/21 05:19:53;;;;;;;;;;;;;;;15.87;77.58;99376.19;1715084;83;20087;-77
2022/07/21 05:22:21;;;;;;;;;;;;;;;15.95;77.56;99379.36;1726536;82;20490;-72
2022/07/21 05:24:52;;;;;;;;;;;;;;;16.06;77.79;99381.84;1726515;83;20095;-79
2022/07/21 05:27:16;;;;;;;;;;;;;;;16.18;76.55;99374.80;1726479;82;20115;-76
2022/07/21 05:29:52;;;;;;;;;;;;;;;16.27;74.92;99364.35;1726444;83;21835;-77
2022/07/21 05:32:19;;;;;;;;;;;;;;;16.35;75.55;99355.05;1726373;82;20095;-78
2022/07/21 05:34:50;;;;;;;;;;;;;;;16.45;74.53;99358.67;1726083;82;20095;-78
2022/07/21 05:37:22;;;;;;;;;;;;;;;16.56;74.47;99353.96;1715350;83;20099;-87
2022/07/21 05:39:56;;;;;;;;;;;;;;;16.66;74.03;99358.40;1726566;83;20083;-81
2022/07/21 05:42:22;;;;;;;;;;;;;;;16.78;74.63;99365.19;1725941;82;21214;-72
2022/07/21 05:44:50;;;;;;;;;;;;;;;16.93;74.16;99364.12;1739728;82;20107;-72
2022/07/21 05:47:21;;;;;;;;;;;;;;;17.05;73.30;99357.06;1726560;83;20465;-73
2022/07/21 05:50:00;;;;;;;;;;;;;;;17.21;74.76;99357.00;1739649;81;20437;-69
2022/07/21 05:52:27;;;;;;;;;;;;;;;17.35;71.86;99358.08;1725538;82;20095;-75
2022/07/21 05:54:58;;;;;;;;;;;;;;;17.48;71.70;99366.47;1726933;82;21151;-73
2022/07/21 05:57:28;;;;;;;;;;;;;;;17.59;71.23;99370.84;1739518;81;20111;-72
2022/07/21 06:00:00;;;;;;;;;;;;;;;17.71;71.50;99369.33;1715136;83;20154;-68
2022/07/21 06:02:39;;;;;;;;;;;;;;;17.85;70.01;99364.63;1715478;83;20107;-68
2022/07/21 06:05:08;;;;;;;;;;;;;;;17.96;70.83;99368.97;1725805;82;20446;-69
2022/07/21 06:07:34;;;;;;;;;;;;;;;18.09;69.53;99367.03;1726117;81;21124;-68
2022/07/21 06:10:01;;;;;;;;;;;;;;;18.18;69.10;99363.20;1726704;83;20450;-68
2022/07/21 06:12:29;;;;;;;;;;;;;;;18.33;69.63;99365.86;1726100;83;20544;-77
2022/07/21 06:14:55;;;;;;;;;;;;;;;18.45;67.83;99351.77;1722648;83;20115;-74
2022/07/21 06:17:23;;;;;;;;;;;;;;;18.57;67.01;99360.45;1721333;83;20119;-75
2022/07/21 06:19:50;;;;;;;;;;;;;;;18.66;66.93;99355.47;1721089;83;21763;-74
2022/07/21 06:22:16;;;;;;;;;;;;;;;18.78;66.77;99355.84;1720987;83;20178;-79
2022/07/21 06:24:43;;;;;;;;;;;;;;;18.90;65.16;99351.45;1720957;82;20096;-81
2022/07/21 06:27:12;;;;;;;;;;;;;;;18.97;66.75;99352.14;1720917;83;20151;-72
2022/07/21 06:29:41;;;;;;;;;;;;;;;19.08;65.05;99353.86;1721011;83;20115;-76
2022/07/21 06:32:09;;;;;;;;;;;;;;;19.19;64.27;99349.83;1720531;83;21577;-72
2022/07/21 06:34:40;;;;;;;;;;;;;;;19.25;64.10;99354.47;1720948;83;20465;-72
2022/07/21 06:37:15;;;;;;;;;;;;;;;19.35;63.61;99351.02;1720991;82;20128;-76
2022/07/21 06:39:50;;;;;;;;;;;;;;;19.42;61.93;99347.73;1720525;83;20441;-70
2022/07/21 06:42:20;;;;;;;;;;;;;;;19.50;61.63;99340.86;1721159;83;20116;-70
2022/07/21 06:44:54;;;;;;;;;;;;;;;19.55;60.94;99333.59;1720528;83;20549;-69
2022/07/21 06:47:23;;;;;;;;;;;;;;;19.62;62.26;99339.23;1723941;83;20434;-69
2022/07/21 06:49:50;;;;;;;;;;;;;;;19.74;61.31;99339.75;1720228;83;20108;-70
2022/07/21 06:52:16;;;;;;;;;;;;;;;19.85;59.63;99340.45;1712241;83;20098;-70
2022/07/21 06:54:43;;;;;;;;;;;;;;;19.89;59.08;99339.89;1701539;83;20086;-70
2022/07/21 06:57:10;;;;;;;;;;;;;;;19.92;61.21;99341.32;1701422;84;21103;-68
2022/07/21 06:59:36;;;;;;;;;;;;;;;20.00;60.63;99337.42;1701403;83;20086;-70
2022/07/21 07:02:04;;;;;;;;;;;;;;;20.10;60.79;99344.28;1713608;83;20123;-70
2022/07/21 07:04:31;;;;;;;;;;;;;;;20.16;57.17;99335.77;1701647;83;20470;-82
2022/07/21 07:07:02;;;;;;;;;;;;;;;20.17;57.52;99331.00;1701861;83;20122;-77
2022/07/21 07:09:29;;;;;;;;;;;;;;;20.18;58.68;99327.83;1715434;83;21261;-77
2022/07/21 07:12:03;;;;;;;;;;;;;;;20.28;59.12;99325.70;1709264;83;20098;-72
2022/07/21 07:14:25;;;;;;;;;;;;;;;20.44;58.87;99316.50;1700762;84;20121;-73
2022/07/21 07:16:54;;;;;;;;;;;;;;;20.57;57.51;99322.56;1701070;83;20114;-70
2022/07/21 07:19:21;;;;;;;;;;;;;;;20.67;57.44;99323.83;1700888;84;20959;-76
2022/07/21 07:21:48;;;;;;;;;;;;;;;20.69;56.00;99325.03;1699617;84;21545;-70
2022/07/21 07:24:15;;;;;;;;;;;;;;;20.64;55.17;99324.59;1700634;83;20154;-71
2022/07/21 07:26:41;;;;;;;;;;;;;;;20.60;55.36;99317.61;1721316;83;20513;-78
2022/07/21 07:29:08;;;;;;;;;;;;;;;20.66;56.24;99323.02;1720956;83;20406;-82
2022/07/21 07:31:35;;;;;;;;;;;;;;;20.78;56.25;99314.13;1707378;82;20090;-78
2022/07/21 07:34:02;;;;;;;;;;;;;;;20.91;55.19;99298.03;1701120;84;20983;-74
2022/07/21 07:36:29;;;;;;;;;;;;;;;20.95;54.86;99307.23;1700513;83;20461;-74
2022/07/21 07:38:56;;;;;;;;;;;;;;;21.00;55.30;99309.64;1701483;83;20118;-76
2022/07/21 07:41:24;;;;;;;;;;;;;;;21.15;55.45;99296.55;1703722;83;20426;-74
2022/07/21 07:43:51;;;;;;;;;;;;;;;21.26;55.52;99298.03;1701427;84;20114;-76
2022/07/21 07:46:18;;;;;;;;;;;;;;;21.28;53.37;99309.00;1701362;84;21136;-72
2022/07/21 07:48:47;;;;;;;;;;;;;;;21.26;53.26;99316.17;1701505;83;20074;-77
2022/07/21 07:51:14;;;;;;;;;;;;;;;21.18;52.80;99307.53;1707177;83;20115;-76
2022/07/21 07:53:40;;;;;;;;;;;;;;;21.17;54.22;99296.96;1715052;83;20107;-72
2022/07/21 07:56:07;;;;;;;;;;;;;;;21.25;55.49;99302.81;1721268;83;20119;-76
2022/07/21 07:58:34;;;;;;;;;;;;;;;21.40;55.12;99300.24;1721090;83;21138;-73
2022/07/21 08:01:01;;;;;;;;;;;;;;;21.62;53.39;99294.72;1720897;83;20095;-73
2022/07/21 08:03:27;;;;;;;;;;;;;;;21.78;52.60;99293.75;1720820;83;20147;-71
2022/07/21 08:05:55;;;;;;;;;;;;;;;21.94;51.62;99287.19;1720989;83;20258;-71
2022/07/21 08:08:22;;;;;;;;;;;;;;;22.04;50.42;99288.39;1721175;83;20087;-73
2022/07/21 08:10:49;;;;;;;;;;;;;;;22.07;50.06;99281.41;1724935;83;23053;-71
2022/07/21 08:13:17;;;;;;;;;;;;;;;22.15;51.34;99273.81;1721526;83;20111;-72
2022/07/21 08:15:46;;;;;;;;;;;;;;;22.27;50.71;99283.20;1721134;83;20398;-69
2022/07/21 08:18:13;;;;;;;;;;;;;;;22.40;51.00;99269.01;1724059;82;20228;-76
2022/07/21 08:20:40;;;;;;;;;;;;;;;22.68;50.98;99274.32;1712854;83;20121;-75
2022/07/21 08:23:09;;;;;;;;;;;;;;;23.09;50.62;99265.42;1708454;83;22185;-76
2022/07/21 08:25:35;;;;;;;;;;;;;;;23.36;46.55;99253.87;1707813;84;20121;-73
2022/07/21 08:28:02;;;;;;;;;;;;;;;23.48;46.76;99262.41;1708878;83;20086;-74
2022/07/21 08:30:29;;;;;;;;;;;;;;;23.66;46.21;99266.72;1709004;84;20102;-76
2022/07/21 08:32:56;;;;;;;;;;;;;;;23.88;45.70;99264.53;1709255;84;20145;-76
2022/07/21 08:35:22;;;;;;;;;;;;;;;23.98;46.25;99267.87;1709229;84;21127;-78
2022/07/21 08:37:56;;;;;;;;;;;;;;;23.92;45.25;99254.70;1711437;83;20150;-76
2022/07/21 08:40:24;;;;;;;;;;;;;;;23.94;44.75;99264.89;1705792;83;20165;-77
2022/07/21 08:42:52;;;;;;;;;;;;;;;24.00;42.79;99249.23;1710554;83;20132;-76
2022/07/21 08:45:18;;;;;;;;;;;;;;;24.00;43.95;99259.84;1709700;84;20114;-71
2022/07/21 08:47:45;;;;;;;;;;;;;;;24.14;43.15;99253.31;1709354;83;21181;-74
2022/07/21 08:50:11;;;;;;;;;;;;;;;24.19;43.08;99245.86;1709321;84;20157;-71
2022/07/21 08:52:38;;;;;;;;;;;;;;;24.25;44.12;99261.06;1709228;84;20110;-72
2022/07/21 08:55:05;;;;;;;;;;;;;;;24.32;43.98;99237.73;1688074;84;20090;-73
2022/07/21 08:57:33;;;;;;;;;;;;;;;24.49;43.68;99245.78;1709341;83;20464;-73
2022/07/21 08:59:59;;;;;;;;;;;;;;;24.76;43.96;99234.66;1709574;84;21071;-70
2022/07/21 09:02:32;;;;;;;;;;;;;;;24.97;42.18;99239.42;1709306;84;20086;-69
2022/07/21 09:04:58;;;;;;;;;;;;;;;25.06;41.72;99234.70;1709184;84;20114;-71
2022/07/21 09:07:25;;;;;;;;;;;;;;;25.11;44.34;99231.42;1709311;83;20130;-68
2022/07/21 09:10:00;;;;;;;;;;;;;;;25.44;43.20;99227.54;1709437;83;20101;-69
2022/07/21 09:12:26;;;;;;;;;;;;;;;25.61;42.06;99235.71;1709403;83;21088;-68
2022/07/21 09:15:14;;;;;;;;;;;;;;;25.77;40.77;99239.31;1713664;83;20142;-68
2022/07/21 09:17:42;;;;;;;;;;;;;;;25.79;39.90;99227.64;1720999;83;20075;-70
2022/07/21 09:20:24;;;;;;;;;;;;;;;25.83;41.79;99228.38;1726564;83;20095;-68
2022/07/21 09:23:13;;;;;;;;;;;;;;;26.03;39.63;99226.41;1740448;81;20083;-68
2022/07/21 09:25:45;;;;;;;;;;;;;;;26.18;38.87;99219.32;1709347;83;22230;-69
2022/07/21 09:28:26;;;;;;;;;;;;;;;26.06;39.05;99225.56;1709379;84;20094;-68
2022/07/21 09:31:01;;;;;;;;;;;;;;;25.97;39.27;99214.09;1709466;83;20086;-68
2022/07/21 09:33:33;;;;;;;;;;;;;;;26.07;38.99;99221.52;1709462;83;20110;-68
2022/07/21 09:36:08;;;;;;;;;;;;;;;25.99;38.14;99211.03;1709707;83;20121;-70
2022/07/21 09:38:37;;;;;;;;;;;;;;;25.80;39.26;99216.58;1687884;83;21324;-73
2022/07/21 09:41:06;;;;;;;;;;;;;;;25.92;39.62;99206.94;1688792;84;20124;-72
2022/07/21 09:43:41;;;;;;;;;;;;;;;26.09;38.61;99195.78;1680705;85;20076;-73
2022/07/21 09:46:11;;;;;;;;;;;;;;;26.14;38.06;99188.25;1680856;85;20128;-73
2022/07/21 09:48:38;;;;;;;;;;;;;;;26.21;39.61;99197.98;1692670;83;20123;-73
2022/07/21 09:51:25;;;;;;;;;;;;;;;26.35;38.12;99188.51;1716793;83;21239;-74
2022/07/21 09:54:06;;;;;;;;;;;;;;;26.45;39.40;99181.27;1709255;84;20614;-75
2022/07/21 09:56:36;;;;;;;;;;;;;;;26.66;37.93;99180.03;1709049;84;20185;-69
2022/07/21 09:59:04;;;;;;;;;;;;;;;26.73;38.66;99186.92;1708283;83;20114;-73
2022/07/21 10:01:30;;;;;;;;;;;;;;;26.82;38.92;99189.16;1709477;84;20122;-77
2022/07/21 10:03:57;;;;;;;;;;;;;;;26.87;37.07;99187.24;1709328;83;21961;-73
2022/07/21 10:06:27;;;;;;;;;;;;;;;26.84;37.36;99190.93;1709212;84;20125;-72
2022/07/21 10:08:55;;;;;;;;;;;;;;;26.70;37.99;99182.16;1709204;84;20118;-72
2022/07/21 10:11:22;;;;;;;;;;;;;;;26.55;37.25;99171.03;1709092;83;20145;-75
2022/07/21 10:13:50;;;;;;;;;;;;;;;26.52;38.16;99163.45;1709188;83;20098;-74
2022/07/21 10:16:17;;;;;;;;;;;;;;;26.61;38.52;99174.91;1709602;83;21092;-69
2022/07/21 10:19:14;;;;;;;;;;;;;;;26.78;38.71;99172.34;1703912;84;20091;-72
2022/07/21 10:22:03;;;;;;;;;;;;;;;27.04;38.01;99166.38;1700454;83;20094;-71
2022/07/21 10:24:30;;;;;;;;;;;;;;;27.13;38.71;99154.52;1701400;83;20090;-68
2022/07/21 10:27:10;;;;;;;;;;;;;;;27.36;39.32;99159.99;1701338;84;20422;-71
2022/07/21 10:29:52;;;;;;;;;;;;;;;27.69;37.92;99151.59;1701765;84;20738;-71
2022/07/21 10:32:22;;;;;;;;;;;;;;;27.85;36.49;99156.58;1701453;84;20126;-71
2022/07/21 10:34:49;;;;;;;;;;;;;;;27.74;37.37;99144.77;1701870;84;20153;-70
2022/07/21 10:37:40;;;;;;;;;;;;;;;27.74;37.32;99160.91;1700680;84;20430;-72
2022/07/21 10:40:24;;;;;;;;;;;;;;;27.77;38.06;99155.17;1686703;85;20183;-70
2022/07/21 10:43:04;;;;;;;;;;;;;;;28.03;37.99;99165.20;1687123;85;21079;-68
2022/07/21 10:45:39;;;;;;;;;;;;;;;28.25;36.62;99159.98;1686785;85;20130;-76
2022/07/21 10:48:08;;;;;;;;;;;;;;;28.37;36.88;99157.02;1686334;85;20143;-73
2022/07/21 10:50:37;;;;;;;;;;;;;;;28.32;36.66;99164.62;1690057;84;20101;-71
2022/07/21 10:53:07;;;;;;;;;;;;;;;28.23;36.39;99156.81;1692406;85;20421;-72
2022/07/21 10:55:37;;;;;;;;;;;;;;;28.26;37.42;99157.95;1691583;84;21130;-72
2022/07/21 10:58:14;;;;;;;;;;;;;;;28.38;37.26;99160.02;1691581;85;20086;-74
2022/07/21 11:00:38;;;;;;;;;;;;;;;28.59;36.85;99165.69;1689838;85;20078;-74
2022/07/21 11:03:17;;;;;;;;;;;;;;;28.75;35.90;99158.56;1692447;85;20246;-70
2022/07/21 11:06:07;;;;;;;;;;;;;;;28.90;35.11;99149.84;1692024;85;20085;-76
2022/07/21 11:08:51;;;;;;;;;;;;;;;28.74;35.26;99159.01;1692521;85;21104;-71
2022/07/21 11:11:25;;;;;;;;;;;;;;;28.63;35.63;99165.58;1701281;83;20086;-72
2022/07/21 11:14:00;;;;;;;;;;;;;;;28.50;34.92;99152.22;1706164;82;20146;-72
2022/07/21 11:16:49;;;;;;;;;;;;;;;28.42;36.41;99161.33;1701322;83;20118;-70
2022/07/21 11:19:37;;;;;;;;;;;;;;;28.42;35.92;99167.77;1701428;83;20098;-71
2022/07/21 11:22:15;;;;;;;;;;;;;;;28.60;37.02;99153.94;1679579;84;21194;-84
2022/07/21 11:24:44;;;;;;;;;;;;;;;28.83;34.94;99156.34;1674672;85;20116;-79
2022/07/21 11:27:13;;;;;;;;;;;;;;;28.68;36.83;99157.35;1674713;85;20486;-70
2022/07/21 11:29:42;;;;;;;;;;;;;;;28.78;36.33;99160.48;1663961;85;20092;-72
2022/07/21 11:32:08;;;;;;;;;;;;;;;28.78;35.01;99152.02;1648837;84;20151;-73
2022/07/21 11:34:55;;;;;;;;;;;;;;;28.80;36.29;99134.63;1647395;86;21143;-75
2022/07/21 11:37:30;;;;;;;;;;;;;;;28.80;37.63;99150.95;1647306;86;20170;-76
2022/07/21 11:39:57;;;;;;;;;;;;;;;28.97;36.26;99139.56;1647667;86;20119;-76
2022/07/21 11:42:24;;;;;;;;;;;;;;;29.10;35.19;99136.92;1647463;87;20149;-68
2022/07/21 11:44:51;;;;;;;;;;;;;;;29.16;35.01;99130.88;1647280;86;20186;-69
2022/07/21 11:47:18;;;;;;;;;;;;;;;29.19;34.14;99136.25;1647107;87;21157;-69
2022/07/21 11:49:44;;;;;;;;;;;;;;;29.19;34.04;99126.36;1647356;86;20438;-69
2022/07/21 11:52:17;;;;;;;;;;;;;;;29.14;34.90;99136.81;1647521;85;20130;-69
2022/07/21 11:54:50;;;;;;;;;;;;;;;29.17;35.65;99131.05;1647469;87;20492;-70
2022/07/21 11:57:18;;;;;;;;;;;;;;;29.24;34.73;99125.80;1647455;87;20091;-75
2022/07/21 11:59:44;;;;;;;;;;;;;;;29.36;34.18;99125.00;1647250;85;21248;-77
2022/07/21 12:02:16;;;;;;;;;;;;;;;29.10;34.29;99117.77;1647544;87;20422;-78
2022/07/21 12:05:03;;;;;;;;;;;;;;;28.92;36.65;99127.58;1647443;87;20079;-76
2022/07/21 12:07:37;;;;;;;;;;;;;;;28.97;36.05;99122.61;1647757;86;20536;-77
2022/07/21 12:10:07;;;;;;;;;;;;;;;29.24;35.29;99125.80;1647442;86;20106;-75
2022/07/21 12:12:40;;;;;;;;;;;;;;;29.31;34.33;99117.71;1647383;87;21092;-75
2022/07/21 12:15:17;;;;;;;;;;;;;;;29.22;34.37;99119.80;1647472;86;20079;-76
2022/07/21 12:17:47;;;;;;;;;;;;;;;29.37;36.24;99107.42;1647704;86;20127;-74
2022/07/21 12:20:17;;;;;;;;;;;;;;;29.84;34.05;99109.66;1647611;86;20417;-74
2022/07/21 12:22:46;;;;;;;;;;;;;;;29.80;33.15;99104.75;1696534;83;20158;-74
2022/07/21 12:25:13;;;;;;;;;;;;;;;29.72;34.89;99112.52;1701356;84;21143;-75
2022/07/21 12:27:46;;;;;;;;;;;;;;;29.80;35.76;99112.44;1701273;84;20090;-74
2022/07/21 12:30:34;;;;;;;;;;;;;;;29.79;33.77;99109.45;1701785;83;20125;-77
2022/07/21 12:33:02;;;;;;;;;;;;;;;29.74;33.58;99110.02;1701378;84;20583;-85
2022/07/21 12:35:29;;;;;;;;;;;;;;;29.57;33.94;99107.34;1701820;83;20146;-72
2022/07/21 12:38:00;;;;;;;;;;;;;;;29.54;35.25;99118.14;1701605;83;21578;-72
2022/07/21 12:40:28;;;;;;;;;;;;;;;29.63;33.30;99103.94;1701478;84;20114;-72
2022/07/21 12:43:08;;;;;;;;;;;;;;;29.45;34.10;99111.00;1701573;84;20098;-72
2022/07/21 12:45:54;;;;;;;;;;;;;;;29.48;33.76;99111.48;1701358;84;20125;-72
2022/07/21 12:48:27;;;;;;;;;;;;;;;29.41;34.74;99099.61;1701649;84;20173;-73
2022/07/21 12:51:12;;;;;;;;;;;;;;;29.41;33.13;99103.85;1701635;84;21856;-72
2022/07/21 12:53:44;;;;;;;;;;;;;;;29.30;34.36;99098.55;1701461;84;20146;-72
2022/07/21 12:56:12;;;;;;;;;;;;;;;29.34;34.31;99090.73;1700314;84;20106;-72
2022/07/21 12:58:39;;;;;;;;;;;;;;;29.53;34.72;99097.39;1701695;84;20131;-71
2022/07/21 13:01:06;;;;;;;;;;;;;;;29.46;34.50;99096.24;1701638;84;20467;-71
2022/07/21 13:03:33;;;;;;;;;;;;;;;29.31;34.92;99093.69;1701546;83;21614;-71